sensor_id;sensor_type;location;lat;lon;timestamp;P1;durP1;ratioP1;P2;durP2;ratioP2
6665;SDS011;3369;49.906;8.598;2023-01-08T00:01:41;5.97;;;4.67;;
6665;SDS011;3369;49.906;8.598;2023-01-08T00:04:07;6.87;;;3.80;;
6665;SDS011;3369;49.906;8.598;2023-01-08T00:06:33;4.00;;;3.60;;
6665;SDS011;3369;49.906;8.598;2023-01-08T00:08:59;4.70;;;4.23;;
6665;SDS011;3369;49.906;8.598;2023-01-08T00:11:25;5.20;;;3.67;;
6665;SDS011;3369;49.906;8.598;2023-01-08T00:13:51;4.03;;;3.63;;
6665;SDS011;3369;49.906;8.598;2023-01-08T00:16:17;6.10;;;4.23;;
6665;SDS011;3369;49.906;8.598;2023-01-08T00:18:44;4.60;;;4.13;;
6665;SDS011;3369;49.906;8.598;2023-01-08T00:21:10;5.40;;;4.00;;
6665;SDS011;3369;49.906;8.598;2023-01-08T00:23:36;5.60;;;4.10;;
6665;SDS011;3369;49.906;8.598;2023-01-08T00:26:03;6.27;;;4.13;;
6665;SDS011;3369;49.906;8.598;2023-01-08T00:28:30;4.23;;;3.83;;
6665;SDS011;3369;49.906;8.598;2023-01-08T00:30:56;4.27;;;3.87;;
6665;SDS011;3369;49.906;8.598;2023-01-08T00:33:22;4.33;;;3.63;;
6665;SDS011;3369;49.906;8.598;2023-01-08T00:35:48;3.83;;;3.53;;
6665;SDS011;3369;49.906;8.598;2023-01-08T00:38:14;4.27;;;3.87;;
6665;SDS011;3369;49.906;8.598;2023-01-08T00:40:40;5.20;;;4.33;;
6665;SDS011;3369;49.906;8.598;2023-01-08T00:43:06;5.20;;;4.23;;
6665;SDS011;3369;49.906;8.598;2023-01-08T00:45:32;4.87;;;4.30;;
6665;SDS011;3369;49.906;8.598;2023-01-08T00:47:58;4.33;;;3.93;;
6665;SDS011;3369;49.906;8.598;2023-01-08T00:50:25;4.63;;;4.00;;
6665;SDS011;3369;49.906;8.598;2023-01-08T00:52:51;4.27;;;3.60;;
6665;SDS011;3369;49.906;8.598;2023-01-08T00:55:17;6.07;;;4.37;;
6665;SDS011;3369;49.906;8.598;2023-01-08T00:57:43;5.13;;;3.80;;
6665;SDS011;3369;49.906;8.598;2023-01-08T01:00:10;4.87;;;3.80;;
6665;SDS011;3369;49.906;8.598;2023-01-08T01:02:38;4.63;;;4.10;;
6665;SDS011;3369;49.906;8.598;2023-01-08T01:05:04;5.63;;;4.33;;
6665;SDS011;3369;49.906;8.598;2023-01-08T01:07:32;4.83;;;4.00;;
6665;SDS011;3369;49.906;8.598;2023-01-08T01:09:58;5.77;;;4.37;;
6665;SDS011;3369;49.906;8.598;2023-01-08T01:12:23;4.73;;;3.70;;
6665;SDS011;3369;49.906;8.598;2023-01-08T01:14:49;5.13;;;3.93;;
6665;SDS011;3369;49.906;8.598;2023-01-08T01:17:15;4.20;;;3.80;;
6665;SDS011;3369;49.906;8.598;2023-01-08T01:19:40;4.30;;;3.83;;
6665;SDS011;3369;49.906;8.598;2023-01-08T01:22:07;3.97;;;3.33;;
6665;SDS011;3369;49.906;8.598;2023-01-08T01:24:32;3.90;;;3.30;;
6665;SDS011;3369;49.906;8.598;2023-01-08T01:26:58;4.23;;;3.80;;
6665;SDS011;3369;49.906;8.598;2023-01-08T01:29:24;4.00;;;3.70;;
6665;SDS011;3369;49.906;8.598;2023-01-08T01:31:50;5.00;;;3.90;;
6665;SDS011;3369;49.906;8.598;2023-01-08T01:34:15;4.13;;;3.73;;
6665;SDS011;3369;49.906;8.598;2023-01-08T01:36:41;4.93;;;4.07;;
6665;SDS011;3369;49.906;8.598;2023-01-08T01:39:07;4.57;;;3.77;;
6665;SDS011;3369;49.906;8.598;2023-01-08T01:41:37;4.37;;;3.97;;
6665;SDS011;3369;49.906;8.598;2023-01-08T01:47:31;4.13;;;3.73;;
6665;SDS011;3369;49.906;8.598;2023-01-08T01:52:42;5.77;;;4.00;;
6665;SDS011;3369;49.906;8.598;2023-01-08T01:55:20;4.77;;;4.03;;
6665;SDS011;3369;49.906;8.598;2023-01-08T01:57:50;4.87;;;3.77;;
6665;SDS011;3369;49.906;8.598;2023-01-08T02:00:22;5.20;;;4.10;;
6665;SDS011;3369;49.906;8.598;2023-01-08T02:02:49;4.40;;;4.00;;
6665;SDS011;3369;49.906;8.598;2023-01-08T02:05:16;5.47;;;4.43;;
6665;SDS011;3369;49.906;8.598;2023-01-08T02:07:43;4.57;;;4.17;;
6665;SDS011;3369;49.906;8.598;2023-01-08T02:12:55;5.27;;;4.67;;
6665;SDS011;3369;49.906;8.598;2023-01-08T02:15:30;5.70;;;4.87;;
6665;SDS011;3369;49.906;8.598;2023-01-08T02:42:22;6.13;;;5.00;;
6665;SDS011;3369;49.906;8.598;2023-01-08T02:48:34;7.20;;;5.40;;
6665;SDS011;3369;49.906;8.598;2023-01-08T02:50:42;7.90;;;5.97;;
6665;SDS011;3369;49.906;8.598;2023-01-08T02:53:14;5.63;;;5.03;;
6665;SDS011;3369;49.906;8.598;2023-01-08T02:55:52;6.43;;;5.73;;
6665;SDS011;3369;49.906;8.598;2023-01-08T02:58:22;6.03;;;5.40;;
6665;SDS011;3369;49.906;8.598;2023-01-08T03:00:49;7.17;;;5.40;;
6665;SDS011;3369;49.906;8.598;2023-01-08T03:03:21;5.40;;;4.90;;
6665;SDS011;3369;49.906;8.598;2023-01-08T03:05:57;6.93;;;5.53;;
6665;SDS011;3369;49.906;8.598;2023-01-08T03:08:25;5.63;;;5.17;;
6665;SDS011;3369;49.906;8.598;2023-01-08T03:10:54;5.80;;;5.30;;
6665;SDS011;3369;49.906;8.598;2023-01-08T03:13:44;5.43;;;4.93;;
6665;SDS011;3369;49.906;8.598;2023-01-08T03:16:27;7.37;;;5.23;;
6665;SDS011;3369;49.906;8.598;2023-01-08T03:19:02;6.40;;;4.93;;
6665;SDS011;3369;49.906;8.598;2023-01-08T03:21:47;5.37;;;4.53;;
6665;SDS011;3369;49.906;8.598;2023-01-08T03:24:15;5.47;;;4.97;;
6665;SDS011;3369;49.906;8.598;2023-01-08T03:26:44;7.43;;;5.30;;
6665;SDS011;3369;49.906;8.598;2023-01-08T03:29:14;5.57;;;4.97;;
6665;SDS011;3369;49.906;8.598;2023-01-08T03:31:43;6.87;;;4.90;;
6665;SDS011;3369;49.906;8.598;2023-01-08T03:34:11;7.37;;;5.00;;
6665;SDS011;3369;49.906;8.598;2023-01-08T03:36:40;7.50;;;5.10;;
6665;SDS011;3369;49.906;8.598;2023-01-08T03:39:11;7.53;;;5.20;;
6665;SDS011;3369;49.906;8.598;2023-01-08T03:41:44;5.60;;;4.77;;
6665;SDS011;3369;49.906;8.598;2023-01-08T03:44:12;5.50;;;5.00;;
6665;SDS011;3369;49.906;8.598;2023-01-08T03:46:39;8.87;;;4.93;;
6665;SDS011;3369;49.906;8.598;2023-01-08T03:49:10;5.80;;;4.93;;
6665;SDS011;3369;49.906;8.598;2023-01-08T03:51:40;7.70;;;5.27;;
6665;SDS011;3369;49.906;8.598;2023-01-08T03:54:11;5.67;;;5.13;;
6665;SDS011;3369;49.906;8.598;2023-01-08T03:56:42;5.20;;;4.70;;
6665;SDS011;3369;49.906;8.598;2023-01-08T03:59:12;5.77;;;4.87;;
6665;SDS011;3369;49.906;8.598;2023-01-08T04:01:38;7.83;;;5.10;;
6665;SDS011;3369;49.906;8.598;2023-01-08T04:04:05;6.00;;;4.97;;
6665;SDS011;3369;49.906;8.598;2023-01-08T04:06:31;8.03;;;4.73;;
6665;SDS011;3369;49.906;8.598;2023-01-08T04:08:56;6.10;;;4.87;;
6665;SDS011;3369;49.906;8.598;2023-01-08T04:11:22;7.07;;;5.10;;
6665;SDS011;3369;49.906;8.598;2023-01-08T04:13:48;6.83;;;5.40;;
6665;SDS011;3369;49.906;8.598;2023-01-08T04:16:13;6.93;;;4.77;;
6665;SDS011;3369;49.906;8.598;2023-01-08T04:18:39;5.60;;;5.10;;
6665;SDS011;3369;49.906;8.598;2023-01-08T04:21:05;5.23;;;4.77;;
6665;SDS011;3369;49.906;8.598;2023-01-08T04:23:30;5.80;;;5.20;;
6665;SDS011;3369;49.906;8.598;2023-01-08T04:25:56;5.83;;;5.07;;
6665;SDS011;3369;49.906;8.598;2023-01-08T04:28:21;6.50;;;5.00;;
6665;SDS011;3369;49.906;8.598;2023-01-08T04:30:48;6.60;;;5.73;;
6665;SDS011;3369;49.906;8.598;2023-01-08T04:33:14;6.50;;;4.93;;
6665;SDS011;3369;49.906;8.598;2023-01-08T04:35:40;6.67;;;5.50;;
6665;SDS011;3369;49.906;8.598;2023-01-08T04:38:06;6.57;;;5.57;;
6665;SDS011;3369;49.906;8.598;2023-01-08T04:40:32;6.63;;;5.60;;
6665;SDS011;3369;49.906;8.598;2023-01-08T04:42:58;7.07;;;5.37;;
6665;SDS011;3369;49.906;8.598;2023-01-08T04:45:24;6.13;;;5.27;;
6665;SDS011;3369;49.906;8.598;2023-01-08T04:47:56;8.30;;;5.60;;
6665;SDS011;3369;49.906;8.598;2023-01-08T04:50:22;9.60;;;6.43;;
6665;SDS011;3369;49.906;8.598;2023-01-08T04:52:48;6.53;;;5.90;;
6665;SDS011;3369;49.906;8.598;2023-01-08T04:55:14;5.83;;;5.23;;
6665;SDS011;3369;49.906;8.598;2023-01-08T04:57:40;6.20;;;5.23;;
6665;SDS011;3369;49.906;8.598;2023-01-08T05:00:06;6.57;;;5.20;;
6665;SDS011;3369;49.906;8.598;2023-01-08T05:02:32;5.60;;;5.00;;
6665;SDS011;3369;49.906;8.598;2023-01-08T05:04:58;4.90;;;4.43;;
6665;SDS011;3369;49.906;8.598;2023-01-08T05:07:23;6.00;;;4.93;;
6665;SDS011;3369;49.906;8.598;2023-01-08T05:09:49;6.47;;;4.63;;
6665;SDS011;3369;49.906;8.598;2023-01-08T05:12:15;5.40;;;4.60;;
6665;SDS011;3369;49.906;8.598;2023-01-08T05:14:41;7.37;;;5.17;;
6665;SDS011;3369;49.906;8.598;2023-01-08T05:17:06;4.80;;;4.30;;
6665;SDS011;3369;49.906;8.598;2023-01-08T05:19:32;5.20;;;4.60;;
6665;SDS011;3369;49.906;8.598;2023-01-08T05:21:58;7.47;;;5.40;;
6665;SDS011;3369;49.906;8.598;2023-01-08T05:24:23;5.07;;;4.57;;
6665;SDS011;3369;49.906;8.598;2023-01-08T05:26:49;5.03;;;4.23;;
6665;SDS011;3369;49.906;8.598;2023-01-08T05:29:14;5.17;;;4.23;;
6665;SDS011;3369;49.906;8.598;2023-01-08T05:31:40;4.60;;;4.20;;
6665;SDS011;3369;49.906;8.598;2023-01-08T05:34:06;5.00;;;4.50;;
6665;SDS011;3369;49.906;8.598;2023-01-08T05:36:31;5.70;;;4.97;;
6665;SDS011;3369;49.906;8.598;2023-01-08T05:38:57;7.10;;;4.50;;
6665;SDS011;3369;49.906;8.598;2023-01-08T05:41:22;5.20;;;4.33;;
6665;SDS011;3369;49.906;8.598;2023-01-08T05:43:48;5.03;;;4.27;;
6665;SDS011;3369;49.906;8.598;2023-01-08T05:46:13;5.03;;;4.27;;
6665;SDS011;3369;49.906;8.598;2023-01-08T05:48:39;4.37;;;3.97;;
6665;SDS011;3369;49.906;8.598;2023-01-08T05:51:05;5.30;;;4.77;;
6665;SDS011;3369;49.906;8.598;2023-01-08T05:53:30;4.97;;;4.47;;
6665;SDS011;3369;49.906;8.598;2023-01-08T05:55:57;5.13;;;4.27;;
6665;SDS011;3369;49.906;8.598;2023-01-08T05:58:28;6.00;;;4.03;;
6665;SDS011;3369;49.906;8.598;2023-01-08T06:00:59;7.30;;;4.70;;
6665;SDS011;3369;49.906;8.598;2023-01-08T06:03:26;5.70;;;4.70;;
6665;SDS011;3369;49.906;8.598;2023-01-08T06:05:52;5.90;;;4.20;;
6665;SDS011;3369;49.906;8.598;2023-01-08T06:08:17;4.23;;;3.83;;
6665;SDS011;3369;49.906;8.598;2023-01-08T06:10:43;5.10;;;4.03;;
6665;SDS011;3369;49.906;8.598;2023-01-08T06:13:08;6.23;;;4.57;;
6665;SDS011;3369;49.906;8.598;2023-01-08T06:15:35;5.43;;;4.17;;
6665;SDS011;3369;49.906;8.598;2023-01-08T06:18:03;5.13;;;3.97;;
6665;SDS011;3369;49.906;8.598;2023-01-08T06:20:28;4.90;;;4.00;;
6665;SDS011;3369;49.906;8.598;2023-01-08T06:22:54;4.53;;;4.13;;
6665;SDS011;3369;49.906;8.598;2023-01-08T06:25:20;4.30;;;3.90;;
6665;SDS011;3369;49.906;8.598;2023-01-08T06:27:51;4.70;;;3.90;;
6665;SDS011;3369;49.906;8.598;2023-01-08T06:30:17;5.43;;;4.23;;
6665;SDS011;3369;49.906;8.598;2023-01-08T06:32:42;5.10;;;4.20;;
6665;SDS011;3369;49.906;8.598;2023-01-08T06:35:08;4.50;;;4.10;;
6665;SDS011;3369;49.906;8.598;2023-01-08T06:37:34;4.87;;;4.13;;
6665;SDS011;3369;49.906;8.598;2023-01-08T06:39:59;4.37;;;3.67;;
6665;SDS011;3369;49.906;8.598;2023-01-08T06:42:25;5.37;;;3.97;;
6665;SDS011;3369;49.906;8.598;2023-01-08T06:44:51;4.43;;;3.97;;
6665;SDS011;3369;49.906;8.598;2023-01-08T06:47:16;4.77;;;3.60;;
6665;SDS011;3369;49.906;8.598;2023-01-08T06:49:42;4.33;;;3.93;;
6665;SDS011;3369;49.906;8.598;2023-01-08T06:52:08;3.47;;;3.17;;
6665;SDS011;3369;49.906;8.598;2023-01-08T06:54:33;5.10;;;3.80;;
6665;SDS011;3369;49.906;8.598;2023-01-08T06:56:59;3.60;;;3.30;;
6665;SDS011;3369;49.906;8.598;2023-01-08T06:59:24;4.60;;;4.20;;
6665;SDS011;3369;49.906;8.598;2023-01-08T07:01:50;3.90;;;3.37;;
6665;SDS011;3369;49.906;8.598;2023-01-08T07:04:16;4.30;;;3.90;;
6665;SDS011;3369;49.906;8.598;2023-01-08T07:06:42;4.43;;;3.93;;
6665;SDS011;3369;49.906;8.598;2023-01-08T07:09:11;4.97;;;4.50;;
6665;SDS011;3369;49.906;8.598;2023-01-08T07:11:37;8.90;;;4.10;;
6665;SDS011;3369;49.906;8.598;2023-01-08T07:14:03;4.60;;;4.20;;
6665;SDS011;3369;49.906;8.598;2023-01-08T07:16:28;5.27;;;4.00;;
6665;SDS011;3369;49.906;8.598;2023-01-08T07:18:54;5.70;;;4.63;;
6665;SDS011;3369;49.906;8.598;2023-01-08T07:21:20;5.33;;;4.83;;
6665;SDS011;3369;49.906;8.598;2023-01-08T07:23:49;7.73;;;5.10;;
6665;SDS011;3369;49.906;8.598;2023-01-08T07:26:15;5.53;;;4.90;;
6665;SDS011;3369;49.906;8.598;2023-01-08T07:28:41;5.70;;;5.20;;
6665;SDS011;3369;49.906;8.598;2023-01-08T07:31:07;6.57;;;5.10;;
6665;SDS011;3369;49.906;8.598;2023-01-08T07:33:33;5.90;;;4.43;;
6665;SDS011;3369;49.906;8.598;2023-01-08T07:35:59;5.17;;;4.67;;
6665;SDS011;3369;49.906;8.598;2023-01-08T07:38:25;7.33;;;4.87;;
6665;SDS011;3369;49.906;8.598;2023-01-08T07:40:51;5.50;;;4.47;;
6665;SDS011;3369;49.906;8.598;2023-01-08T07:43:16;5.97;;;4.57;;
6665;SDS011;3369;49.906;8.598;2023-01-08T07:45:42;5.43;;;4.40;;
6665;SDS011;3369;49.906;8.598;2023-01-08T07:48:08;7.53;;;5.60;;
6665;SDS011;3369;49.906;8.598;2023-01-08T07:50:35;5.47;;;4.37;;
6665;SDS011;3369;49.906;8.598;2023-01-08T07:53:01;5.37;;;4.63;;
6665;SDS011;3369;49.906;8.598;2023-01-08T07:55:27;5.87;;;4.63;;
6665;SDS011;3369;49.906;8.598;2023-01-08T07:57:54;5.67;;;4.37;;
6665;SDS011;3369;49.906;8.598;2023-01-08T08:00:20;4.80;;;4.40;;
6665;SDS011;3369;49.906;8.598;2023-01-08T08:02:46;4.80;;;4.30;;
6665;SDS011;3369;49.906;8.598;2023-01-08T08:05:12;6.10;;;4.63;;
6665;SDS011;3369;49.906;8.598;2023-01-08T08:07:37;4.50;;;4.10;;
6665;SDS011;3369;49.906;8.598;2023-01-08T08:10:03;4.40;;;4.00;;
6665;SDS011;3369;49.906;8.598;2023-01-08T08:12:29;4.63;;;4.17;;
6665;SDS011;3369;49.906;8.598;2023-01-08T08:14:55;4.33;;;3.93;;
6665;SDS011;3369;49.906;8.598;2023-01-08T08:17:21;5.17;;;4.43;;
6665;SDS011;3369;49.906;8.598;2023-01-08T08:19:46;4.80;;;4.10;;
6665;SDS011;3369;49.906;8.598;2023-01-08T08:22:12;6.40;;;4.47;;
6665;SDS011;3369;49.906;8.598;2023-01-08T08:24:38;4.73;;;4.07;;
6665;SDS011;3369;49.906;8.598;2023-01-08T08:27:04;5.27;;;4.43;;
6665;SDS011;3369;49.906;8.598;2023-01-08T08:29:30;6.03;;;4.47;;
6665;SDS011;3369;49.906;8.598;2023-01-08T08:31:55;5.53;;;4.13;;
6665;SDS011;3369;49.906;8.598;2023-01-08T08:34:21;6.53;;;4.93;;
6665;SDS011;3369;49.906;8.598;2023-01-08T08:36:49;5.23;;;4.73;;
6665;SDS011;3369;49.906;8.598;2023-01-08T08:39:15;5.63;;;4.73;;
6665;SDS011;3369;49.906;8.598;2023-01-08T08:41:41;5.63;;;5.13;;
6665;SDS011;3369;49.906;8.598;2023-01-08T08:44:06;5.53;;;5.03;;
6665;SDS011;3369;49.906;8.598;2023-01-08T08:46:33;6.20;;;5.17;;
6665;SDS011;3369;49.906;8.598;2023-01-08T08:48:59;5.83;;;4.97;;
6665;SDS011;3369;49.906;8.598;2023-01-08T08:51:24;5.27;;;4.77;;
6665;SDS011;3369;49.906;8.598;2023-01-08T08:53:50;6.10;;;4.87;;
6665;SDS011;3369;49.906;8.598;2023-01-08T08:56:16;6.57;;;4.93;;
6665;SDS011;3369;49.906;8.598;2023-01-08T08:58:41;6.37;;;5.13;;
6665;SDS011;3369;49.906;8.598;2023-01-08T09:01:07;5.63;;;4.93;;
6665;SDS011;3369;49.906;8.598;2023-01-08T09:03:33;8.57;;;5.40;;
6665;SDS011;3369;49.906;8.598;2023-01-08T09:05:59;5.83;;;4.93;;
6665;SDS011;3369;49.906;8.598;2023-01-08T09:08:24;6.63;;;5.43;;
6665;SDS011;3369;49.906;8.598;2023-01-08T09:10:50;5.73;;;5.10;;
6665;SDS011;3369;49.906;8.598;2023-01-08T09:13:16;7.40;;;5.50;;
6665;SDS011;3369;49.906;8.598;2023-01-08T09:15:42;6.43;;;5.03;;
6665;SDS011;3369;49.906;8.598;2023-01-08T09:18:07;7.97;;;5.63;;
6665;SDS011;3369;49.906;8.598;2023-01-08T09:20:33;6.30;;;5.67;;
6665;SDS011;3369;49.906;8.598;2023-01-08T09:22:59;5.90;;;5.33;;
6665;SDS011;3369;49.906;8.598;2023-01-08T09:25:27;6.87;;;5.63;;
6665;SDS011;3369;49.906;8.598;2023-01-08T09:27:59;8.83;;;5.70;;
6665;SDS011;3369;49.906;8.598;2023-01-08T09:30:26;6.80;;;5.63;;
6665;SDS011;3369;49.906;8.598;2023-01-08T09:32:59;6.10;;;5.50;;
6665;SDS011;3369;49.906;8.598;2023-01-08T09:35:26;8.73;;;5.70;;
6665;SDS011;3369;49.906;8.598;2023-01-08T09:37:52;6.57;;;5.90;;
6665;SDS011;3369;49.906;8.598;2023-01-08T09:40:18;7.43;;;6.37;;
6665;SDS011;3369;49.906;8.598;2023-01-08T09:42:48;7.20;;;5.83;;
6665;SDS011;3369;49.906;8.598;2023-01-08T09:45:29;8.63;;;5.50;;
6665;SDS011;3369;49.906;8.598;2023-01-08T09:48:02;8.17;;;5.73;;
6665;SDS011;3369;49.906;8.598;2023-01-08T09:50:31;7.50;;;6.40;;
6665;SDS011;3369;49.906;8.598;2023-01-08T09:52:58;8.03;;;5.80;;
6665;SDS011;3369;49.906;8.598;2023-01-08T09:55:24;5.97;;;5.37;;
6665;SDS011;3369;49.906;8.598;2023-01-08T09:57:53;6.40;;;5.67;;
6665;SDS011;3369;49.906;8.598;2023-01-08T10:00:27;7.07;;;6.07;;
6665;SDS011;3369;49.906;8.598;2023-01-08T10:02:54;6.30;;;5.77;;
6665;SDS011;3369;49.906;8.598;2023-01-08T10:05:21;7.07;;;6.07;;
6665;SDS011;3369;49.906;8.598;2023-01-08T10:07:47;6.33;;;5.73;;
6665;SDS011;3369;49.906;8.598;2023-01-08T10:12:41;6.87;;;5.90;;
6665;SDS011;3369;49.906;8.598;2023-01-08T10:15:10;6.43;;;5.83;;
6665;SDS011;3369;49.906;8.598;2023-01-08T10:17:39;7.27;;;6.27;;
6665;SDS011;3369;49.906;8.598;2023-01-08T10:20:24;5.80;;;5.20;;
6665;SDS011;3369;49.906;8.598;2023-01-08T10:22:50;6.80;;;5.30;;
6665;SDS011;3369;49.906;8.598;2023-01-08T10:25:24;7.53;;;5.93;;
6665;SDS011;3369;49.906;8.598;2023-01-08T10:28:01;5.73;;;5.10;;
6665;SDS011;3369;49.906;8.598;2023-01-08T10:30:37;8.67;;;6.10;;
6665;SDS011;3369;49.906;8.598;2023-01-08T10:33:10;5.63;;;5.13;;
6665;SDS011;3369;49.906;8.598;2023-01-08T10:35:41;5.87;;;5.03;;
6665;SDS011;3369;49.906;8.598;2023-01-08T10:38:24;5.50;;;5.00;;
6665;SDS011;3369;49.906;8.598;2023-01-08T10:40:53;5.40;;;4.73;;
6665;SDS011;3369;49.906;8.598;2023-01-08T10:43:21;5.73;;;5.00;;
6665;SDS011;3369;49.906;8.598;2023-01-08T10:46:02;4.97;;;4.27;;
6665;SDS011;3369;49.906;8.598;2023-01-08T10:48:53;5.03;;;4.20;;
6665;SDS011;3369;49.906;8.598;2023-01-08T10:51:20;5.40;;;4.43;;
6665;SDS011;3369;49.906;8.598;2023-01-08T10:53:48;5.43;;;4.20;;
6665;SDS011;3369;49.906;8.598;2023-01-08T10:58:53;5.40;;;4.20;;
6665;SDS011;3369;49.906;8.598;2023-01-08T11:01:26;5.87;;;4.83;;
6665;SDS011;3369;49.906;8.598;2023-01-08T11:04:00;5.27;;;4.80;;
6665;SDS011;3369;49.906;8.598;2023-01-08T11:06:29;6.10;;;4.87;;
6665;SDS011;3369;49.906;8.598;2023-01-08T11:08:58;6.73;;;5.33;;
6665;SDS011;3369;49.906;8.598;2023-01-08T11:11:42;5.73;;;4.73;;
6665;SDS011;3369;49.906;8.598;2023-01-08T11:14:14;5.23;;;4.73;;
6665;SDS011;3369;49.906;8.598;2023-01-08T11:16:46;5.50;;;4.97;;
6665;SDS011;3369;49.906;8.598;2023-01-08T11:19:21;5.17;;;4.50;;
6665;SDS011;3369;49.906;8.598;2023-01-08T11:21:59;5.20;;;4.70;;
6665;SDS011;3369;49.906;8.598;2023-01-08T11:24:27;5.20;;;4.40;;
6665;SDS011;3369;49.906;8.598;2023-01-08T11:37:51;4.23;;;3.77;;
6665;SDS011;3369;49.906;8.598;2023-01-08T11:40:31;4.67;;;3.60;;
6665;SDS011;3369;49.906;8.598;2023-01-08T11:45:45;4.20;;;3.37;;
6665;SDS011;3369;49.906;8.598;2023-01-08T11:48:40;3.60;;;3.30;;
6665;SDS011;3369;49.906;8.598;2023-01-08T12:00:26;3.20;;;2.50;;
6665;SDS011;3369;49.906;8.598;2023-01-08T12:02:57;2.97;;;2.77;;
6665;SDS011;3369;49.906;8.598;2023-01-08T12:11:30;3.10;;;2.63;;
6665;SDS011;3369;49.906;8.598;2023-01-08T12:14:05;2.97;;;2.53;;
6665;SDS011;3369;49.906;8.598;2023-01-08T12:20:41;3.27;;;2.80;;
6665;SDS011;3369;49.906;8.598;2023-01-08T12:25:46;2.50;;;2.30;;
6665;SDS011;3369;49.906;8.598;2023-01-08T12:33:50;2.20;;;2.00;;
6665;SDS011;3369;49.906;8.598;2023-01-08T12:36:23;2.00;;;1.90;;
6665;SDS011;3369;49.906;8.598;2023-01-08T12:39:00;2.53;;;2.07;;
6665;SDS011;3369;49.906;8.598;2023-01-08T12:41:31;3.07;;;2.30;;
6665;SDS011;3369;49.906;8.598;2023-01-08T12:44:00;2.50;;;2.30;;
6665;SDS011;3369;49.906;8.598;2023-01-08T12:46:30;5.33;;;2.43;;
6665;SDS011;3369;49.906;8.598;2023-01-08T12:48:58;2.30;;;2.10;;
6665;SDS011;3369;49.906;8.598;2023-01-08T12:51:25;4.40;;;2.23;;
6665;SDS011;3369;49.906;8.598;2023-01-08T12:56:41;2.57;;;2.37;;
6665;SDS011;3369;49.906;8.598;2023-01-08T12:59:29;2.60;;;2.40;;
6665;SDS011;3369;49.906;8.598;2023-01-08T13:04:47;2.90;;;2.63;;
6665;SDS011;3369;49.906;8.598;2023-01-08T13:07:24;3.13;;;2.63;;
6665;SDS011;3369;49.906;8.598;2023-01-08T13:10:02;2.83;;;2.50;;
6665;SDS011;3369;49.906;8.598;2023-01-08T13:12:35;2.53;;;2.33;;
6665;SDS011;3369;49.906;8.598;2023-01-08T13:15:04;3.13;;;2.57;;
6665;SDS011;3369;49.906;8.598;2023-01-08T13:17:32;2.60;;;2.40;;
6665;SDS011;3369;49.906;8.598;2023-01-08T13:19:59;2.50;;;2.30;;
6665;SDS011;3369;49.906;8.598;2023-01-08T13:27:56;2.63;;;2.40;;
6665;SDS011;3369;49.906;8.598;2023-01-08T13:30:31;2.90;;;2.43;;
6665;SDS011;3369;49.906;8.598;2023-01-08T13:32:56;3.37;;;2.73;;
6665;SDS011;3369;49.906;8.598;2023-01-08T13:35:31;2.13;;;2.00;;
6665;SDS011;3369;49.906;8.598;2023-01-08T13:43:23;2.53;;;2.30;;
6665;SDS011;3369;49.906;8.598;2023-01-08T13:45:58;3.60;;;2.80;;
6665;SDS011;3369;49.906;8.598;2023-01-08T13:49:33;2.60;;;2.10;;
6665;SDS011;3369;49.906;8.598;2023-01-08T13:51:30;3.03;;;2.47;;
6665;SDS011;3369;49.906;8.598;2023-01-08T13:54:26;2.43;;;2.23;;
6665;SDS011;3369;49.906;8.598;2023-01-08T13:57:00;2.30;;;2.10;;
6665;SDS011;3369;49.906;8.598;2023-01-08T14:02:28;4.20;;;2.53;;
6665;SDS011;3369;49.906;8.598;2023-01-08T14:05:00;8.63;;;3.90;;
6665;SDS011;3369;49.906;8.598;2023-01-08T14:07:26;5.83;;;3.37;;
6665;SDS011;3369;49.906;8.598;2023-01-08T14:09:52;3.80;;;2.40;;
6665;SDS011;3369;49.906;8.598;2023-01-08T14:12:29;3.07;;;2.43;;
6665;SDS011;3369;49.906;8.598;2023-01-08T14:14:57;2.67;;;2.23;;
6665;SDS011;3369;49.906;8.598;2023-01-08T14:17:30;2.47;;;2.20;;
6665;SDS011;3369;49.906;8.598;2023-01-08T14:19:57;4.50;;;2.30;;
6665;SDS011;3369;49.906;8.598;2023-01-08T14:22:29;2.40;;;1.93;;
6665;SDS011;3369;49.906;8.598;2023-01-08T14:24:57;3.20;;;2.10;;
6665;SDS011;3369;49.906;8.598;2023-01-08T14:27:27;2.40;;;2.20;;
6665;SDS011;3369;49.906;8.598;2023-01-08T14:29:55;2.00;;;1.90;;
6665;SDS011;3369;49.906;8.598;2023-01-08T14:32:22;2.87;;;2.07;;
6665;SDS011;3369;49.906;8.598;2023-01-08T14:55:36;2.43;;;2.10;;
6665;SDS011;3369;49.906;8.598;2023-01-08T14:58:14;2.90;;;1.90;;
6665;SDS011;3369;49.906;8.598;2023-01-08T15:00:42;2.53;;;2.10;;
6665;SDS011;3369;49.906;8.598;2023-01-08T15:06:00;2.37;;;2.00;;
6665;SDS011;3369;49.906;8.598;2023-01-08T15:08:31;2.17;;;2.00;;
6665;SDS011;3369;49.906;8.598;2023-01-08T15:13:42;2.03;;;1.83;;
6665;SDS011;3369;49.906;8.598;2023-01-08T15:16:10;2.97;;;1.97;;
6665;SDS011;3369;49.906;8.598;2023-01-08T15:18:59;2.87;;;2.57;;
6665;SDS011;3369;49.906;8.598;2023-01-08T15:21:30;3.53;;;2.90;;
6665;SDS011;3369;49.906;8.598;2023-01-08T15:23:58;4.47;;;2.93;;
6665;SDS011;3369;49.906;8.598;2023-01-08T15:26:25;2.73;;;2.40;;
6665;SDS011;3369;49.906;8.598;2023-01-08T15:31:32;2.30;;;2.10;;
6665;SDS011;3369;49.906;8.598;2023-01-08T15:34:10;3.87;;;2.33;;
6665;SDS011;3369;49.906;8.598;2023-01-08T15:36:36;2.60;;;2.20;;
6665;SDS011;3369;49.906;8.598;2023-01-08T15:39:02;2.87;;;2.47;;
6665;SDS011;3369;49.906;8.598;2023-01-08T15:41:32;2.47;;;2.23;;
6665;SDS011;3369;49.906;8.598;2023-01-08T15:44:20;2.87;;;2.53;;
6665;SDS011;3369;49.906;8.598;2023-01-08T15:46:47;4.63;;;2.00;;
6665;SDS011;3369;49.906;8.598;2023-01-08T15:49:12;3.00;;;2.30;;
6665;SDS011;3369;49.906;8.598;2023-01-08T15:51:42;2.30;;;2.00;;
6665;SDS011;3369;49.906;8.598;2023-01-08T15:54:10;2.53;;;2.17;;
6665;SDS011;3369;49.906;8.598;2023-01-08T15:56:37;2.93;;;2.00;;
6665;SDS011;3369;49.906;8.598;2023-01-08T15:59:03;1.90;;;1.80;;
6665;SDS011;3369;49.906;8.598;2023-01-08T16:01:29;1.63;;;1.53;;
6665;SDS011;3369;49.906;8.598;2023-01-08T16:03:57;2.17;;;1.97;;
6665;SDS011;3369;49.906;8.598;2023-01-08T16:06:23;1.50;;;1.40;;
6665;SDS011;3369;49.906;8.598;2023-01-08T16:08:49;2.10;;;1.90;;
6665;SDS011;3369;49.906;8.598;2023-01-08T16:11:18;2.73;;;2.30;;
6665;SDS011;3369;49.906;8.598;2023-01-08T16:13:44;1.97;;;1.87;;
6665;SDS011;3369;49.906;8.598;2023-01-08T16:16:11;2.93;;;2.30;;
6665;SDS011;3369;49.906;8.598;2023-01-08T16:18:39;2.10;;;1.80;;
6665;SDS011;3369;49.906;8.598;2023-01-08T16:21:06;3.43;;;2.50;;
6665;SDS011;3369;49.906;8.598;2023-01-08T16:23:33;1.70;;;1.60;;
6665;SDS011;3369;49.906;8.598;2023-01-08T16:26:10;1.87;;;1.70;;
6665;SDS011;3369;49.906;8.598;2023-01-08T16:28:37;1.97;;;1.87;;
6665;SDS011;3369;49.906;8.598;2023-01-08T16:31:03;3.07;;;2.03;;
6665;SDS011;3369;49.906;8.598;2023-01-08T16:33:30;1.57;;;1.47;;
6665;SDS011;3369;49.906;8.598;2023-01-08T16:35:56;2.13;;;1.90;;
6665;SDS011;3369;49.906;8.598;2023-01-08T16:38:26;1.73;;;1.63;;
6665;SDS011;3369;49.906;8.598;2023-01-08T16:40:52;1.90;;;1.80;;
6665;SDS011;3369;49.906;8.598;2023-01-08T16:43:20;1.93;;;1.73;;
6665;SDS011;3369;49.906;8.598;2023-01-08T16:45:47;2.37;;;1.63;;
6665;SDS011;3369;49.906;8.598;2023-01-08T16:48:13;1.50;;;1.40;;
6665;SDS011;3369;49.906;8.598;2023-01-08T16:50:39;2.43;;;1.63;;
6665;SDS011;3369;49.906;8.598;2023-01-08T16:53:06;2.40;;;1.60;;
6665;SDS011;3369;49.906;8.598;2023-01-08T16:55:32;1.60;;;1.50;;
6665;SDS011;3369;49.906;8.598;2023-01-08T16:58:00;1.30;;;1.20;;
6665;SDS011;3369;49.906;8.598;2023-01-08T17:00:26;1.30;;;1.20;;
6665;SDS011;3369;49.906;8.598;2023-01-08T17:02:52;1.20;;;1.10;;
6665;SDS011;3369;49.906;8.598;2023-01-08T17:05:18;1.50;;;1.40;;
6665;SDS011;3369;49.906;8.598;2023-01-08T17:07:43;2.13;;;1.20;;
6665;SDS011;3369;49.906;8.598;2023-01-08T17:10:09;1.97;;;1.30;;
6665;SDS011;3369;49.906;8.598;2023-01-08T17:12:35;1.20;;;1.20;;
6665;SDS011;3369;49.906;8.598;2023-01-08T17:15:01;1.53;;;1.30;;
6665;SDS011;3369;49.906;8.598;2023-01-08T17:17:27;1.40;;;1.20;;
6665;SDS011;3369;49.906;8.598;2023-01-08T17:19:52;1.43;;;1.33;;
6665;SDS011;3369;49.906;8.598;2023-01-08T17:22:18;1.53;;;1.40;;
6665;SDS011;3369;49.906;8.598;2023-01-08T17:24:44;1.20;;;1.10;;
6665;SDS011;3369;49.906;8.598;2023-01-08T17:27:09;1.30;;;1.13;;
6665;SDS011;3369;49.906;8.598;2023-01-08T17:29:35;1.20;;;1.20;;
6665;SDS011;3369;49.906;8.598;2023-01-08T17:32:01;1.97;;;1.30;;
6665;SDS011;3369;49.906;8.598;2023-01-08T17:34:27;1.60;;;1.37;;